createdAt,value
2023-02-22T00:04:50.663Z,101077.81
2023-02-22T00:07:21.362Z,101076.28
2023-02-22T00:09:49.480Z,101077.50
2023-02-22T00:12:17.437Z,101082.25
2023-02-22T00:14:45.290Z,101077.41
2023-02-22T00:17:13.532Z,101075.81
2023-02-22T00:19:41.356Z,101073.97
2023-02-22T00:22:10.488Z,101076.81
2023-02-22T00:24:38.336Z,101076.97
2023-02-22T00:27:06.192Z,101069.25
2023-02-22T00:29:34.599Z,101060.53
2023-02-22T00:32:02.594Z,101067.06
2023-02-22T00:34:30.477Z,101061.91
2023-02-22T00:36:58.402Z,101056.31
2023-02-22T00:39:27.704Z,101060.72
2023-02-22T00:41:55.608Z,101051.59
2023-02-22T00:44:24.136Z,101046.97
2023-02-22T00:46:52.055Z,101047.00
2023-02-22T00:49:20.191Z,101040.53
2023-02-22T00:51:50.934Z,101042.16
2023-02-22T00:54:20.054Z,101037.06
2023-02-22T00:56:50.460Z,101041.25
2023-02-22T00:59:18.413Z,101035.97
2023-02-22T01:01:46.276Z,101035.78
2023-02-22T01:04:14.124Z,101025.09
2023-02-22T01:06:42.219Z,101028.38
2023-02-22T01:09:10.211Z,101018.16
2023-02-22T01:11:37.995Z,101020.72
2023-02-22T01:14:11.617Z,101020.97
2023-02-22T01:16:39.480Z,101020.31
2023-02-22T01:19:07.447Z,101021.56
2023-02-22T01:21:35.258Z,101018.56
2023-02-22T01:24:03.144Z,101027.06
2023-02-22T01:26:31.076Z,101016.81
2023-02-22T01:28:59.128Z,101021.56
2023-02-22T01:31:28.571Z,101015.06
2023-02-22T01:33:56.510Z,101017.88
2023-02-22T01:36:24.460Z,101015.72
2023-02-22T01:38:52.419Z,101014.31
2023-02-22T01:41:22.575Z,101013.19
2023-02-22T01:43:50.506Z,101007.31
2023-02-22T01:46:23.534Z,101007.47
2023-02-22T01:48:57.359Z,101007.03
2023-02-22T01:51:29.447Z,100997.06
2023-02-22T01:54:01.289Z,101000.16
2023-02-22T01:56:32.455Z,100998.56
2023-02-22T01:59:03.371Z,100996.28
2023-02-22T02:01:31.886Z,100996.63
2023-02-22T02:04:05.044Z,101002.72
2023-02-22T02:06:35.877Z,100991.56
2023-02-22T02:09:11.096Z,100991.97
2023-02-22T02:11:41.326Z,100994.63
2023-02-22T02:14:11.386Z,100993.28
2023-02-22T02:16:43.167Z,100988.22
2023-02-22T02:19:20.213Z,100992.84
2023-02-22T02:22:38.738Z,100988.47
2023-02-22T02:25:30.836Z,100977.66
2023-02-22T02:28:46.927Z,100970.03
2023-02-22T02:31:44.331Z,100972.84
2023-02-22T02:34:20.378Z,100975.16
2023-02-22T02:36:58.616Z,100975.53
2023-02-22T02:39:30.437Z,100970.84
2023-02-22T02:42:01.701Z,100969.19
2023-02-22T02:44:37.764Z,100969.38
2023-02-22T02:47:08.251Z,100969.00
2023-02-22T02:49:45.063Z,100965.97
2023-02-22T02:52:14.436Z,100969.09
2023-02-22T02:54:43.177Z,100967.38
2023-02-22T02:57:11.183Z,100965.09
2023-02-22T02:59:39.540Z,100967.00
2023-02-22T03:02:25.751Z,100966.41
2023-02-22T03:05:09.929Z,100957.41
2023-02-22T03:07:50.712Z,100950.78
2023-02-22T03:10:44.761Z,100948.41
2023-02-22T03:13:20.235Z,100948.06
2023-02-22T03:15:57.930Z,100956.34
2023-02-22T03:18:30.246Z,100949.56
2023-02-22T03:21:12.589Z,100942.28
2023-02-22T03:23:46.444Z,100939.78
2023-02-22T03:26:23.802Z,100936.19
2023-02-22T03:28:56.853Z,100933.06
2023-02-22T03:31:30.758Z,100921.78
2023-02-22T03:34:03.392Z,100919.00
2023-02-22T03:36:38.977Z,100918.78
2023-02-22T03:39:10.202Z,100915.16
2023-02-22T03:41:40.727Z,100921.53
2023-02-22T03:44:12.783Z,100913.25
2023-02-22T03:46:43.684Z,100927.81
2023-02-22T03:49:15.726Z,100916.25
2023-02-22T03:51:45.601Z,100925.97
2023-02-22T03:54:16.362Z,100925.91
2023-02-22T03:56:51.228Z,100926.81
2023-02-22T03:59:27.415Z,100928.22
2023-02-22T04:01:55.945Z,100921.88
2023-02-22T04:04:24.853Z,100916.06
2023-02-22T04:06:54.354Z,100911.25
2023-02-22T04:09:22.815Z,100920.13
2023-02-22T04:11:50.677Z,100916.47
2023-02-22T04:14:18.532Z,100912.22
2023-02-22T04:16:46.194Z,100915.06
2023-02-22T04:19:13.993Z,100913.06
2023-02-22T04:21:41.872Z,100912.69
2023-02-22T04:24:17.919Z,100902.59
2023-02-22T04:26:45.917Z,100905.66
2023-02-22T04:29:13.745Z,100900.25
2023-02-22T04:31:45.095Z,100894.41
2023-02-22T04:34:13.250Z,100897.56
2023-02-22T04:36:44.571Z,100901.72
2023-02-22T04:39:12.994Z,100904.78
2023-02-22T04:41:42.078Z,100916.72
2023-02-22T04:44:09.788Z,100912.31
2023-02-22T04:46:37.620Z,100908.69
2023-02-22T04:49:05.545Z,100912.53
2023-02-22T04:51:36.910Z,100910.94
2023-02-22T04:54:09.612Z,100915.03
2023-02-22T04:56:39.382Z,100915.78
2023-02-22T04:59:08.565Z,100907.91
2023-02-22T05:01:38.498Z,100899.13
2023-02-22T05:04:07.698Z,100903.38
2023-02-22T05:06:35.756Z,100903.56
2023-02-22T05:09:03.857Z,100904.75
2023-02-22T05:11:31.648Z,100904.28
2023-02-22T05:13:59.600Z,100907.00
2023-02-22T05:16:28.851Z,100900.00
2023-02-22T05:18:56.679Z,100907.59
2023-02-22T05:21:24.637Z,100891.53
2023-02-22T05:23:52.378Z,100889.75
2023-02-22T05:26:20.175Z,100890.34
2023-02-22T05:28:47.910Z,100888.44
2023-02-22T05:31:15.928Z,100889.91
2023-02-22T05:33:45.219Z,100876.09
2023-02-22T05:36:12.971Z,100883.59
2023-02-22T05:38:43.423Z,100884.03
2023-02-22T05:41:12.617Z,100885.25
2023-02-22T05:43:41.627Z,100879.50
2023-02-22T05:46:09.394Z,100877.38
2023-02-22T05:48:37.234Z,100885.16
2023-02-22T05:51:06.605Z,100879.69
2023-02-22T05:53:34.508Z,100874.53
2023-02-22T05:56:02.439Z,100876.53
2023-02-22T05:58:30.159Z,100868.53
2023-02-22T06:00:57.858Z,100877.50
2023-02-22T06:03:25.661Z,100871.00
2023-02-22T06:05:53.415Z,100864.75
2023-02-22T06:08:22.445Z,100870.88
2023-02-22T06:10:50.150Z,100870.63
2023-02-22T06:13:17.901Z,100866.66
2023-02-22T06:15:45.602Z,100870.41
2023-02-22T06:18:13.388Z,100875.56
2023-02-22T06:20:41.389Z,100867.25
2023-02-22T06:23:09.209Z,100870.19
2023-02-22T06:25:38.393Z,100859.13
2023-02-22T06:28:06.138Z,100862.78
2023-02-22T06:30:34.071Z,100862.78
2023-02-22T06:33:01.842Z,100865.16
2023-02-22T06:35:29.557Z,100860.13
2023-02-22T06:37:57.289Z,100863.31
2023-02-22T06:40:29.331Z,100861.34
2023-02-22T06:42:59.873Z,100862.31
2023-02-22T06:45:27.843Z,100863.00
2023-02-22T06:47:55.689Z,100868.16
2023-02-22T06:50:26.162Z,100867.19
2023-02-22T06:52:53.923Z,100862.41
2023-02-22T06:55:23.376Z,100864.88
2023-02-22T06:57:52.175Z,100869.78
2023-02-22T07:00:23.258Z,100865.81
2023-02-22T07:02:51.045Z,100864.19
2023-02-22T07:05:21.017Z,100867.97
2023-02-22T07:07:50.141Z,100865.88
2023-02-22T07:10:20.620Z,100863.19
2023-02-22T07:12:48.876Z,100871.44
2023-02-22T07:15:18.390Z,100863.53
2023-02-22T07:17:47.449Z,100868.50
2023-02-22T07:20:15.242Z,100873.03
2023-02-22T07:22:43.075Z,100869.28
2023-02-22T07:25:12.260Z,100858.25
2023-02-22T07:27:41.458Z,100866.84
2023-02-22T07:30:16.983Z,100862.03
2023-02-22T07:32:44.933Z,100868.19
2023-02-22T07:35:17.678Z,100857.19
2023-02-22T07:37:45.439Z,100849.75
2023-02-22T07:40:13.642Z,100851.81
2023-02-22T07:42:55.220Z,100860.63
2023-02-22T07:45:24.499Z,100851.16
2023-02-22T07:47:52.890Z,100852.00
2023-02-22T07:50:23.807Z,100863.44
2023-02-22T07:52:54.558Z,100862.84
2023-02-22T07:55:24.616Z,100852.56
2023-02-22T07:57:54.262Z,100859.63
2023-02-22T08:00:24.887Z,100855.03
2023-02-22T08:03:54.402Z,100852.66
2023-02-22T08:06:25.802Z,100849.69
2023-02-22T08:08:53.566Z,100845.13
2023-02-22T08:11:21.265Z,100842.91
2023-02-22T08:13:49.100Z,100851.44
2023-02-22T08:16:16.893Z,100851.50
2023-02-22T08:18:44.643Z,100849.41
2023-02-22T08:21:12.441Z,100849.44
2023-02-22T08:23:41.564Z,100844.94
2023-02-22T08:26:15.514Z,100847.13
2023-02-22T08:28:43.282Z,100840.41
2023-02-22T08:31:11.005Z,100836.47
2023-02-22T08:33:38.866Z,100842.50
2023-02-22T08:36:07.334Z,100844.31
2023-02-22T08:38:35.133Z,100841.94
2023-02-22T08:41:04.443Z,100843.41
2023-02-22T08:43:32.254Z,100843.50
2023-02-22T08:46:00.840Z,100844.00
2023-02-22T08:48:28.921Z,100840.41
2023-02-22T08:50:56.695Z,100841.66
2023-02-22T08:53:26.976Z,100835.25
2023-02-22T08:55:54.789Z,100828.66
2023-02-22T08:58:23.926Z,100832.81
2023-02-22T09:00:52.145Z,100826.53
2023-02-22T09:03:20.028Z,100826.16
2023-02-22T09:05:48.108Z,100833.63
2023-02-22T09:08:17.342Z,100833.63
2023-02-22T09:10:45.825Z,100826.22
2023-02-22T09:13:14.086Z,100828.47
2023-02-22T09:15:43.651Z,100819.09
2023-02-22T09:18:15.230Z,100826.41
2023-02-22T09:20:43.218Z,100830.00
2023-02-22T09:23:11.377Z,100829.75
2023-02-22T09:25:40.746Z,100821.34
2023-02-22T09:28:09.290Z,100826.97
2023-02-22T09:30:37.780Z,100820.25
2023-02-22T09:33:09.916Z,100815.84
2023-02-22T09:35:42.152Z,100813.50
2023-02-22T09:38:11.383Z,100807.44
2023-02-22T09:40:45.098Z,100803.63
2023-02-22T09:43:35.649Z,100813.25
2023-02-22T09:46:19.262Z,100808.19
2023-02-22T09:48:59.222Z,100815.47
2023-02-22T09:51:30.701Z,100822.09
2023-02-22T09:54:03.053Z,100817.28
2023-02-22T09:56:33.858Z,100814.69
2023-02-22T09:59:04.712Z,100814.78
2023-02-22T10:01:36.502Z,100815.75
2023-02-22T10:04:12.523Z,100806.75
2023-02-22T10:06:45.457Z,100806.81
2023-02-22T10:09:13.352Z,100798.94
2023-02-22T10:11:53.410Z,100798.06
2023-02-22T10:14:43.933Z,100791.59
2023-02-22T10:17:20.370Z,100800.56
2023-02-22T10:20:05.070Z,100793.16
2023-02-22T10:22:43.801Z,100792.56
2023-02-22T10:25:18.026Z,100787.94
2023-02-22T10:27:52.589Z,100783.00
2023-02-22T10:30:25.767Z,100769.81
2023-02-22T10:32:59.458Z,100766.09
2023-02-22T10:35:33.750Z,100766.91
2023-02-22T10:38:13.486Z,100773.78
2023-02-22T10:40:44.780Z,100762.81
2023-02-22T10:43:12.649Z,100767.31
2023-02-22T10:45:40.997Z,100763.91
2023-02-22T10:48:11.919Z,100756.88
2023-02-22T10:50:44.280Z,100759.88
2023-02-22T10:53:12.397Z,100762.69
2023-02-22T10:56:13.828Z,100760.22
2023-02-22T10:58:49.978Z,100751.78
2023-02-22T11:01:27.731Z,100749.97
2023-02-22T11:04:01.021Z,100746.34
2023-02-22T11:06:31.453Z,100746.72
2023-02-22T11:09:10.300Z,100748.53
2023-02-22T11:11:39.670Z,100730.81
2023-02-22T11:14:10.644Z,100732.81
2023-02-22T11:16:41.751Z,100729.94
2023-02-22T11:19:23.215Z,100728.91
2023-02-22T11:21:54.920Z,100731.00
2023-02-22T11:24:30.420Z,100726.34
2023-02-22T11:27:03.507Z,100715.81
2023-02-22T11:29:34.178Z,100715.50
2023-02-22T11:32:03.953Z,100713.63
2023-02-22T11:34:36.433Z,100702.66
2023-02-22T11:37:34.414Z,100701.66
2023-02-22T11:40:12.997Z,100697.19
2023-02-22T11:42:40.838Z,100696.06
2023-02-22T11:45:17.216Z,100695.13
2023-02-22T11:47:53.894Z,100693.13
2023-02-22T11:50:28.972Z,100689.31
2023-02-22T11:53:26.292Z,100687.63
2023-02-22T11:56:11.538Z,100691.09
2023-02-22T11:58:46.537Z,100684.13
2023-02-22T12:01:23.049Z,100687.44
2023-02-22T12:04:15.638Z,100680.88
2023-02-22T12:06:52.233Z,100684.78
2023-02-22T12:09:33.076Z,100677.63
2023-02-22T12:12:13.685Z,100676.25
2023-02-22T12:14:50.458Z,100685.38
2023-02-22T12:17:29.181Z,100665.28
2023-02-22T12:20:06.848Z,100667.81
2023-02-22T12:22:40.293Z,100665.03
2023-02-22T12:25:21.536Z,100660.31
2023-02-22T12:27:54.103Z,100661.09
2023-02-22T12:30:28.880Z,100652.78
2023-02-22T12:33:00.376Z,100664.78
2023-02-22T12:35:29.874Z,100653.13
2023-02-22T12:38:05.468Z,100659.94
2023-02-22T12:40:44.977Z,100661.69
2023-02-22T12:43:20.626Z,100647.63
2023-02-22T12:45:51.870Z,100650.16
2023-02-22T12:48:32.110Z,100649.28
2023-02-22T12:51:09.701Z,100648.00
2023-02-22T12:53:42.163Z,100645.78
2023-02-22T12:56:21.424Z,100637.09
2023-02-22T12:58:55.232Z,100642.09
2023-02-22T13:01:26.623Z,100634.38
2023-02-22T13:03:55.738Z,100636.25
2023-02-22T13:06:41.640Z,100630.91
2023-02-22T13:09:34.197Z,100627.44
2023-02-22T13:12:14.296Z,100615.06
2023-02-22T13:14:55.518Z,100619.56
2023-02-22T13:17:34.244Z,100614.31
2023-02-22T13:20:09.178Z,100607.38
2023-02-22T13:22:47.937Z,100611.50
2023-02-22T13:25:22.023Z,100607.19
2023-02-22T13:27:56.282Z,100598.88
2023-02-22T13:30:33.265Z,100599.88
2023-02-22T13:33:22.408Z,100593.66
2023-02-22T13:36:13.458Z,100596.13
2023-02-22T13:39:27.942Z,100586.88
2023-02-22T13:42:36.796Z,100582.75
2023-02-22T13:45:56.080Z,100584.63
2023-02-22T13:48:53.863Z,100591.53
2023-02-22T13:51:37.190Z,100577.16
2023-02-22T13:54:10.000Z,100581.50
2023-02-22T13:56:43.316Z,100573.25
2023-02-22T13:59:25.007Z,100575.28
2023-02-22T14:01:55.246Z,100576.19
2023-02-22T14:04:45.237Z,100582.41
2023-02-22T14:07:56.045Z,100571.38
2023-02-22T14:10:38.870Z,100573.28
2023-02-22T14:13:08.338Z,100565.31
2023-02-22T14:15:36.636Z,100564.91
2023-02-22T14:18:07.442Z,100566.88
2023-02-22T14:20:36.801Z,100561.81
2023-02-22T14:23:34.781Z,100562.97
2023-02-22T14:26:13.275Z,100561.59
2023-02-22T14:28:48.786Z,100557.34
2023-02-22T14:31:34.507Z,100555.59
2023-02-22T14:34:08.877Z,100561.13
2023-02-22T14:36:44.066Z,100550.28
2023-02-22T14:39:17.964Z,100547.28
2023-02-22T14:41:53.776Z,100544.28
2023-02-22T14:44:27.656Z,100549.44
2023-02-22T14:47:02.268Z,100546.59
2023-02-22T14:49:37.038Z,100541.06
2023-02-22T14:52:16.086Z,100543.44
2023-02-22T14:54:59.306Z,100544.47
2023-02-22T14:57:32.995Z,100543.44
2023-02-22T15:00:19.796Z,100539.19
2023-02-22T15:02:49.277Z,100534.81
2023-02-22T15:05:20.896Z,100533.03
2023-02-22T15:07:54.298Z,100529.81
2023-02-22T15:10:27.933Z,100528.81
2023-02-22T15:13:08.975Z,100529.09
2023-02-22T15:15:40.660Z,100534.94
2023-02-22T15:18:18.808Z,100538.34
2023-02-22T15:20:55.787Z,100538.69
2023-02-22T15:23:26.017Z,100534.03
2023-02-22T15:25:54.525Z,100542.53
2023-02-22T15:28:24.202Z,100537.53
2023-02-22T15:30:51.928Z,100538.44
2023-02-22T15:33:24.195Z,100531.00
2023-02-22T15:35:59.511Z,100534.00
2023-02-22T15:38:30.890Z,100529.31
2023-02-22T15:41:03.757Z,100522.22
2023-02-22T15:43:32.599Z,100521.59
2023-02-22T15:46:01.854Z,100518.03
2023-02-22T15:48:31.602Z,100512.34
2023-02-22T15:51:06.612Z,100518.03
2023-02-22T15:53:41.176Z,100511.59
2023-02-22T15:56:13.467Z,100517.81
2023-02-22T15:58:42.390Z,100515.09
2023-02-22T16:01:12.390Z,100516.75
2023-02-22T16:03:44.997Z,100520.22
2023-02-22T16:06:22.093Z,100526.63
2023-02-22T16:08:55.353Z,100528.16
2023-02-22T16:11:30.078Z,100529.69
2023-02-22T16:14:01.666Z,100534.88
2023-02-22T16:16:32.348Z,100533.59
2023-02-22T16:19:32.860Z,100532.84
2023-02-22T16:22:04.325Z,100526.53
2023-02-22T16:24:34.211Z,100528.72
2023-02-22T16:27:23.848Z,100534.63
2023-02-22T16:30:23.353Z,100531.13
2023-02-22T16:32:52.846Z,100525.19
2023-02-22T16:35:20.745Z,100534.19
2023-02-22T16:37:52.148Z,100529.84
2023-02-22T16:40:24.540Z,100535.41
2023-02-22T16:42:52.635Z,100534.53
2023-02-22T16:45:21.964Z,100531.81
2023-02-22T16:47:51.606Z,100530.88
2023-02-22T16:50:19.578Z,100528.41
2023-02-22T16:52:47.676Z,100529.53
2023-02-22T16:55:18.794Z,100538.97
2023-02-22T16:57:46.620Z,100541.06
2023-02-22T17:00:17.356Z,100535.44
2023-02-22T17:02:45.980Z,100535.94
2023-02-22T17:05:16.667Z,100544.63
2023-02-22T17:07:44.477Z,100540.72
2023-02-22T17:10:17.892Z,100543.72
2023-02-22T17:12:47.202Z,100539.25
2023-02-22T17:15:22.917Z,100544.63
2023-02-22T17:17:51.596Z,100546.59
2023-02-22T17:20:29.923Z,100554.53
2023-02-22T17:22:59.170Z,100551.25
2023-02-22T17:25:31.748Z,100552.31
2023-02-22T17:27:59.612Z,100554.72
2023-02-22T17:30:28.115Z,100557.47
2023-02-22T17:33:03.437Z,100557.66
2023-02-22T17:35:35.079Z,100563.72
2023-02-22T17:38:06.169Z,100546.72
2023-02-22T17:40:37.361Z,100560.34
2023-02-22T17:43:08.697Z,100564.84
2023-02-22T17:45:39.403Z,100562.38
2023-02-22T17:48:09.015Z,100566.63
2023-02-22T17:50:38.162Z,100569.78
2023-02-22T17:53:06.997Z,100564.88
2023-02-22T17:55:38.972Z,100576.59
2023-02-22T17:58:08.864Z,100570.44
2023-02-22T18:00:38.816Z,100567.84
2023-02-22T18:03:08.680Z,100573.97
2023-02-22T18:05:41.650Z,100569.97
2023-02-22T18:08:09.565Z,100570.91
2023-02-22T18:10:38.889Z,100570.41
2023-02-22T18:13:06.748Z,100571.94
2023-02-22T18:15:35.544Z,100579.41
2023-02-22T18:18:05.177Z,100568.97
2023-02-22T18:20:38.166Z,100570.13
2023-02-22T18:23:08.287Z,100572.63
2023-02-22T18:25:40.033Z,100572.63
2023-02-22T18:28:09.561Z,100565.22
2023-02-22T18:30:41.187Z,100571.66
2023-02-22T18:33:11.178Z,100577.81
2023-02-22T18:35:39.571Z,100579.91
2023-02-22T18:38:07.766Z,100578.97
2023-02-22T18:40:35.615Z,100577.16
2023-02-22T18:43:04.746Z,100577.16
2023-02-22T18:45:32.548Z,100571.47
2023-02-22T18:48:02.352Z,100577.25
2023-02-22T18:50:30.180Z,100571.84
2023-02-22T18:52:57.909Z,100562.66
2023-02-22T18:55:25.666Z,100566.75
2023-02-22T18:57:53.506Z,100568.13
2023-02-22T19:00:28.565Z,100574.00
2023-02-22T19:02:57.646Z,100556.09
2023-02-22T19:05:25.495Z,100565.16
2023-02-22T19:07:53.276Z,100553.16
2023-02-22T19:10:22.277Z,100560.56
2023-02-22T19:12:50.266Z,100558.38
2023-02-22T19:15:18.168Z,100551.56
2023-02-22T19:17:47.285Z,100554.72
2023-02-22T19:20:15.192Z,100553.16
2023-02-22T19:22:42.959Z,100545.38
2023-02-22T19:25:10.733Z,100544.28
2023-02-22T19:27:38.676Z,100541.78
2023-02-22T19:30:08.383Z,100541.50
2023-02-22T19:32:36.670Z,100544.28
2023-02-22T19:35:11.607Z,100545.75
2023-02-22T19:37:45.896Z,100543.53
2023-02-22T19:40:16.952Z,100544.25
2023-02-22T19:42:44.748Z,100546.84
2023-02-22T19:45:12.644Z,100548.13
2023-02-22T19:47:40.460Z,100541.06
2023-02-22T19:50:10.193Z,100546.19
2023-02-22T19:52:38.971Z,100541.41
2023-02-22T19:55:12.531Z,100544.72
2023-02-22T19:57:40.801Z,100542.69
2023-02-22T20:00:11.379Z,100542.75
2023-02-22T20:02:40.471Z,100545.41
2023-02-22T20:05:18.661Z,100547.16
2023-02-22T20:07:49.414Z,100541.84
2023-02-22T20:10:21.379Z,100557.41
2023-02-22T20:12:49.546Z,100558.97
2023-02-22T20:15:18.079Z,100557.78
2023-02-22T20:17:50.343Z,100552.97
2023-02-22T20:20:21.652Z,100553.78
2023-02-22T20:22:49.520Z,100554.91
2023-02-22T20:25:17.582Z,100552.81
2023-02-22T20:27:46.688Z,100560.00
2023-02-22T20:30:18.199Z,100567.22
2023-02-22T20:32:46.341Z,100567.53
2023-02-22T20:35:16.596Z,100565.56
2023-02-22T20:38:15.168Z,100571.41
2023-02-22T20:40:52.863Z,100558.59
2023-02-22T20:43:27.819Z,100561.47
2023-02-22T20:46:07.125Z,100556.56
2023-02-22T20:48:38.609Z,100559.78
2023-02-22T20:51:07.390Z,100567.16
2023-02-22T20:53:39.230Z,100565.13
2023-02-22T20:56:07.853Z,100550.88
2023-02-22T20:58:35.764Z,100551.06
2023-02-22T21:01:07.693Z,100558.97
2023-02-22T21:03:36.016Z,100556.88
2023-02-22T21:06:05.961Z,100558.47
2023-02-22T21:08:34.479Z,100555.63
2023-02-22T21:11:03.836Z,100552.03
2023-02-22T21:13:32.054Z,100557.47
2023-02-22T21:16:00.273Z,100558.19
2023-02-22T21:18:28.251Z,100553.25
2023-02-22T21:20:56.175Z,100548.84
2023-02-22T21:23:24.238Z,100562.50
2023-02-22T21:25:53.087Z,100564.25
2023-02-22T21:28:23.231Z,100557.41
2023-02-22T21:30:53.584Z,100548.81
2023-02-22T21:33:25.962Z,100553.41
2023-02-22T21:35:56.352Z,100550.78
2023-02-22T21:38:24.414Z,100551.88
2023-02-22T21:40:55.439Z,100541.03
2023-02-22T21:43:25.308Z,100541.63
2023-02-22T21:45:53.311Z,100541.38
2023-02-22T21:48:21.386Z,100545.50
2023-02-22T21:50:49.256Z,100541.22
2023-02-22T21:53:18.686Z,100542.09
2023-02-22T21:55:46.914Z,100536.97
2023-02-22T21:58:16.564Z,100545.66
2023-02-22T22:00:46.349Z,100537.75
2023-02-22T22:03:20.336Z,100542.88
2023-02-22T22:05:49.066Z,100538.28
2023-02-22T22:08:20.330Z,100545.56
2023-02-22T22:10:55.296Z,100538.88
2023-02-22T22:13:23.437Z,100538.69
2023-02-22T22:15:52.844Z,100538.56
2023-02-22T22:18:21.596Z,100543.50
2023-02-22T22:20:51.837Z,100544.13
2023-02-22T22:23:19.768Z,100535.75
2023-02-22T22:25:51.082Z,100536.03
2023-02-22T22:28:19.126Z,100540.03
2023-02-22T22:30:49.384Z,100532.78
2023-02-22T22:33:19.074Z,100543.75
2023-02-22T22:35:47.015Z,100537.69
2023-02-22T22:41:27.303Z,100542.44
2023-02-22T22:43:55.632Z,100543.72
2023-02-22T22:46:23.631Z,100544.66
2023-02-22T22:48:52.956Z,100552.44
2023-02-22T22:51:21.969Z,100555.56
2023-02-22T22:53:51.516Z,100558.69
2023-02-22T22:56:25.885Z,100559.06
2023-02-22T22:58:55.475Z,100554.69
2023-02-22T23:01:27.890Z,100552.59
2023-02-22T23:04:01.805Z,100553.91
2023-02-22T23:06:32.930Z,100552.84
2023-02-22T23:09:10.189Z,100546.34
2023-02-22T23:11:44.179Z,100553.75
2023-02-22T23:14:13.455Z,100551.56
2023-02-22T23:16:42.551Z,100550.91
2023-02-22T23:19:11.855Z,100547.97
2023-02-22T23:21:43.035Z,100552.56
2023-02-22T23:24:15.125Z,100551.91
2023-02-22T23:26:48.273Z,100554.91
2023-02-22T23:29:16.865Z,100558.03
2023-02-22T23:31:47.955Z,100556.97
2023-02-22T23:34:18.037Z,100555.31
2023-02-22T23:36:46.614Z,100556.72
2023-02-22T23:39:16.818Z,100552.81
2023-02-22T23:41:44.888Z,100558.84
2023-02-22T23:44:17.417Z,100559.06
2023-02-22T23:46:47.873Z,100556.41
2023-02-22T23:49:20.330Z,100557.84
2023-02-22T23:51:48.697Z,100561.91
2023-02-22T23:54:19.495Z,100567.53
2023-02-22T23:56:56.167Z,100562.91
2023-02-22T23:59:24.953Z,100562.31
